sensor_id;sensor_type;location;lat;lon;timestamp;pressure;altitude;pressure_sealevel;temperature;humidity
41140;BME280;26881;48.784;9.192;2022-11-03T00:01:02;99048.38;;;9.86;86.65
41140;BME280;26881;48.784;9.192;2022-11-03T00:06:24;99050.16;;;9.67;88.24
41140;BME280;26881;48.784;9.192;2022-11-03T00:11:47;99047.78;;;9.43;89.34
41140;BME280;26881;48.784;9.192;2022-11-03T00:17:11;99042.47;;;9.64;88.21
41140;BME280;26881;48.784;9.192;2022-11-03T00:22:33;99034.16;;;9.75;87.59
41140;BME280;26881;48.784;9.192;2022-11-03T00:27:54;99025.00;;;9.83;87.44
41140;BME280;26881;48.784;9.192;2022-11-03T00:33:17;99035.66;;;9.42;89.15
41140;BME280;26881;48.784;9.192;2022-11-03T00:38:39;99019.84;;;9.45;89.64
41140;BME280;26881;48.784;9.192;2022-11-03T00:44:01;99006.78;;;9.45;88.97
41140;BME280;26881;48.784;9.192;2022-11-03T00:49:22;98997.13;;;9.47;89.34
41140;BME280;26881;48.784;9.192;2022-11-03T00:54:44;99001.81;;;9.22;90.60
41140;BME280;26881;48.784;9.192;2022-11-03T01:00:10;98984.47;;;9.21;90.67
41140;BME280;26881;48.784;9.192;2022-11-03T01:05:32;98994.63;;;9.08;90.96
41140;BME280;26881;48.784;9.192;2022-11-03T01:11:15;98983.13;;;9.31;90.21
41140;BME280;26881;48.784;9.192;2022-11-03T01:16:56;98979.78;;;9.46;88.30
41140;BME280;26881;48.784;9.192;2022-11-03T01:22:19;98972.75;;;9.11;90.09
41140;BME280;26881;48.784;9.192;2022-11-03T01:27:42;98969.53;;;9.05;90.42
41140;BME280;26881;48.784;9.192;2022-11-03T01:33:03;98962.69;;;8.84;91.07
41140;BME280;26881;48.784;9.192;2022-11-03T01:38:26;98958.78;;;8.74;91.73
41140;BME280;26881;48.784;9.192;2022-11-03T01:49:40;98939.69;;;8.73;91.79
41140;BME280;26881;48.784;9.192;2022-11-03T01:55:10;98926.81;;;8.70;91.84
41140;BME280;26881;48.784;9.192;2022-11-03T02:00:34;98925.56;;;8.79;91.32
41140;BME280;26881;48.784;9.192;2022-11-03T02:05:56;98921.59;;;8.70;91.63
41140;BME280;26881;48.784;9.192;2022-11-03T02:11:19;98914.38;;;8.94;90.94
41140;BME280;26881;48.784;9.192;2022-11-03T02:17:02;98907.19;;;8.99;90.30
41140;BME280;26881;48.784;9.192;2022-11-03T02:22:50;98904.94;;;8.92;89.96
41140;BME280;26881;48.784;9.192;2022-11-03T02:28:17;98897.00;;;8.76;90.43
41140;BME280;26881;48.784;9.192;2022-11-03T02:33:56;98896.91;;;8.96;89.30
41140;BME280;26881;48.784;9.192;2022-11-03T02:39:22;98886.75;;;8.90;89.68
41140;BME280;26881;48.784;9.192;2022-11-03T02:44:46;98875.75;;;9.02;89.11
41140;BME280;26881;48.784;9.192;2022-11-03T02:50:09;98875.38;;;9.10;88.03
41140;BME280;26881;48.784;9.192;2022-11-03T03:01:16;98857.31;;;8.69;90.33
41140;BME280;26881;48.784;9.192;2022-11-03T03:06:45;98841.66;;;8.88;89.12
41140;BME280;26881;48.784;9.192;2022-11-03T03:12:09;98825.38;;;8.83;88.89
41140;BME280;26881;48.784;9.192;2022-11-03T03:17:40;98823.44;;;8.50;91.57
41140;BME280;26881;48.784;9.192;2022-11-03T03:23:12;98822.84;;;8.24;92.41
41140;BME280;26881;48.784;9.192;2022-11-03T03:28:44;98812.16;;;8.12;93.18
41140;BME280;26881;48.784;9.192;2022-11-03T03:34:09;98804.44;;;8.09;92.18
41140;BME280;26881;48.784;9.192;2022-11-03T03:39:52;98801.72;;;8.12;93.28
41140;BME280;26881;48.784;9.192;2022-11-03T03:45:17;98800.59;;;8.17;92.76
41140;BME280;26881;48.784;9.192;2022-11-03T03:50:42;98780.50;;;8.38;92.01
41140;BME280;26881;48.784;9.192;2022-11-03T03:56:05;98779.69;;;8.38;91.11
41140;BME280;26881;48.784;9.192;2022-11-03T04:01:27;98772.47;;;8.62;89.91
41140;BME280;26881;48.784;9.192;2022-11-03T04:06:49;98756.44;;;8.52;90.01
41140;BME280;26881;48.784;9.192;2022-11-03T04:12:31;98746.84;;;8.53;90.20
41140;BME280;26881;48.784;9.192;2022-11-03T04:18:11;98738.47;;;8.46;90.38
41140;BME280;26881;48.784;9.192;2022-11-03T04:23:52;98741.56;;;8.35;90.74
41140;BME280;26881;48.784;9.192;2022-11-03T04:29:13;98724.59;;;8.27;90.68
41140;BME280;26881;48.784;9.192;2022-11-03T04:34:35;98732.50;;;7.87;91.83
41140;BME280;26881;48.784;9.192;2022-11-03T04:39:58;98724.41;;;7.55;93.90
41140;BME280;26881;48.784;9.192;2022-11-03T04:45:30;98712.50;;;7.88;93.55
41140;BME280;26881;48.784;9.192;2022-11-03T04:50:54;98714.78;;;7.76;93.84
41140;BME280;26881;48.784;9.192;2022-11-03T04:56:23;98707.81;;;7.77;94.91
41140;BME280;26881;48.784;9.192;2022-11-03T05:01:45;98707.19;;;7.91;94.13
41140;BME280;26881;48.784;9.192;2022-11-03T05:07:23;98701.41;;;7.84;95.60
41140;BME280;26881;48.784;9.192;2022-11-03T05:12:47;98685.63;;;7.87;94.33
41140;BME280;26881;48.784;9.192;2022-11-03T05:23:39;98676.78;;;7.91;94.60
41140;BME280;26881;48.784;9.192;2022-11-03T05:29:18;98668.19;;;7.89;95.01
41140;BME280;26881;48.784;9.192;2022-11-03T05:34:43;98652.19;;;8.16;93.80
41140;BME280;26881;48.784;9.192;2022-11-03T05:40:25;98648.81;;;8.31;91.65
41140;BME280;26881;48.784;9.192;2022-11-03T05:45:49;98646.97;;;7.97;93.03
41140;BME280;26881;48.784;9.192;2022-11-03T05:51:44;98628.09;;;8.11;92.65
41140;BME280;26881;48.784;9.192;2022-11-03T05:57:13;98631.06;;;8.03;93.27
41140;BME280;26881;48.784;9.192;2022-11-03T06:02:37;98626.16;;;7.97;92.80
41140;BME280;26881;48.784;9.192;2022-11-03T06:08:02;98632.38;;;7.75;94.05
41140;BME280;26881;48.784;9.192;2022-11-03T06:13:33;98618.66;;;7.72;94.35
41140;BME280;26881;48.784;9.192;2022-11-03T06:18:55;98613.50;;;7.89;93.33
41140;BME280;26881;48.784;9.192;2022-11-03T06:24:19;98597.38;;;8.00;92.03
41140;BME280;26881;48.784;9.192;2022-11-03T06:29:49;98589.47;;;8.01;91.70
41140;BME280;26881;48.784;9.192;2022-11-03T06:35:13;98577.09;;;8.07;91.07
41140;BME280;26881;48.784;9.192;2022-11-03T06:40:35;98587.19;;;7.95;91.20
41140;BME280;26881;48.784;9.192;2022-11-03T06:46:00;98588.41;;;7.69;93.58
41140;BME280;26881;48.784;9.192;2022-11-03T06:51:27;98593.63;;;7.69;94.03
41140;BME280;26881;48.784;9.192;2022-11-03T06:56:49;98595.31;;;7.70;93.86
41140;BME280;26881;48.784;9.192;2022-11-03T07:02:35;98589.19;;;8.08;92.17
41140;BME280;26881;48.784;9.192;2022-11-03T07:08:24;98576.69;;;8.32;90.23
41140;BME280;26881;48.784;9.192;2022-11-03T07:13:51;98574.31;;;8.27;90.77
41140;BME280;26881;48.784;9.192;2022-11-03T07:19:20;98568.91;;;8.49;90.13
41140;BME280;26881;48.784;9.192;2022-11-03T07:24:44;98554.34;;;8.45;90.08
41140;BME280;26881;48.784;9.192;2022-11-03T07:30:11;98547.00;;;8.53;88.39
41140;BME280;26881;48.784;9.192;2022-11-03T07:35:38;98550.13;;;8.60;87.53
41140;BME280;26881;48.784;9.192;2022-11-03T07:41:26;98544.34;;;8.71;86.76
41140;BME280;26881;48.784;9.192;2022-11-03T07:46:54;98533.41;;;8.64;86.57
41140;BME280;26881;48.784;9.192;2022-11-03T07:52:20;98529.44;;;8.57;87.02
41140;BME280;26881;48.784;9.192;2022-11-03T07:57:42;98526.09;;;8.71;87.71
41140;BME280;26881;48.784;9.192;2022-11-03T08:03:04;98526.97;;;8.87;85.96
41140;BME280;26881;48.784;9.192;2022-11-03T08:08:27;98512.38;;;9.00;85.60
41140;BME280;26881;48.784;9.192;2022-11-03T08:13:49;98504.19;;;9.06;85.41
41140;BME280;26881;48.784;9.192;2022-11-03T08:19:11;98477.72;;;9.14;85.81
41140;BME280;26881;48.784;9.192;2022-11-03T08:24:33;98476.78;;;9.31;85.83
41140;BME280;26881;48.784;9.192;2022-11-03T08:29:55;98456.16;;;9.42;86.22
41140;BME280;26881;48.784;9.192;2022-11-03T08:35:16;98461.75;;;9.50;85.21
41140;BME280;26881;48.784;9.192;2022-11-03T08:40:38;98440.97;;;9.49;85.01
41140;BME280;26881;48.784;9.192;2022-11-03T08:46:00;98445.06;;;9.53;85.07
41140;BME280;26881;48.784;9.192;2022-11-03T08:51:33;98434.03;;;9.64;84.95
41140;BME280;26881;48.784;9.192;2022-11-03T08:56:58;98423.34;;;9.83;84.21
41140;BME280;26881;48.784;9.192;2022-11-03T09:02:20;98425.84;;;10.00;83.08
41140;BME280;26881;48.784;9.192;2022-11-03T09:07:41;98416.78;;;10.06;82.61
41140;BME280;26881;48.784;9.192;2022-11-03T09:13:23;98416.16;;;10.17;82.65
41140;BME280;26881;48.784;9.192;2022-11-03T09:18:45;98413.06;;;10.24;82.63
41140;BME280;26881;48.784;9.192;2022-11-03T09:24:07;98404.69;;;10.48;81.48
41140;BME280;26881;48.784;9.192;2022-11-03T09:29:29;98401.25;;;10.62;81.29
41140;BME280;26881;48.784;9.192;2022-11-03T09:35:11;98383.72;;;10.76;81.52
41140;BME280;26881;48.784;9.192;2022-11-03T09:40:35;98391.75;;;10.88;79.94
41140;BME280;26881;48.784;9.192;2022-11-03T09:45:58;98385.47;;;10.90;79.60
41140;BME280;26881;48.784;9.192;2022-11-03T09:51:21;98372.84;;;10.97;79.83
41140;BME280;26881;48.784;9.192;2022-11-03T09:56:43;98368.16;;;11.02;80.02
41140;BME280;26881;48.784;9.192;2022-11-03T10:02:18;98355.97;;;11.15;80.25
41140;BME280;26881;48.784;9.192;2022-11-03T10:07:42;98342.50;;;11.22;80.34
41140;BME280;26881;48.784;9.192;2022-11-03T10:13:04;98341.25;;;11.27;80.56
41140;BME280;26881;48.784;9.192;2022-11-03T10:18:33;98333.72;;;11.35;80.04
41140;BME280;26881;48.784;9.192;2022-11-03T10:23:55;98336.06;;;11.53;79.62
41140;BME280;26881;48.784;9.192;2022-11-03T10:29:22;98329.78;;;11.55;80.01
41140;BME280;26881;48.784;9.192;2022-11-03T10:34:45;98309.03;;;11.65;79.99
41140;BME280;26881;48.784;9.192;2022-11-03T10:40:34;98310.94;;;11.76;78.65
41140;BME280;26881;48.784;9.192;2022-11-03T10:46:11;98292.28;;;11.80;78.67
41140;BME280;26881;48.784;9.192;2022-11-03T10:52:00;98280.25;;;11.91;78.81
41140;BME280;26881;48.784;9.192;2022-11-03T10:57:28;98276.38;;;11.96;78.40
41140;BME280;26881;48.784;9.192;2022-11-03T11:02:58;98268.81;;;12.05;78.16
41140;BME280;26881;48.784;9.192;2022-11-03T11:08:22;98272.59;;;12.00;78.71
41140;BME280;26881;48.784;9.192;2022-11-03T11:13:44;98237.16;;;12.08;78.52
41140;BME280;26881;48.784;9.192;2022-11-03T11:19:06;98222.50;;;12.05;79.54
41140;BME280;26881;48.784;9.192;2022-11-03T11:30:42;98202.53;;;12.15;79.20
41140;BME280;26881;48.784;9.192;2022-11-03T11:41:09;98197.03;;;12.31;78.75
41140;BME280;26881;48.784;9.192;2022-11-03T11:46:37;98186.31;;;12.34;78.80
41140;BME280;26881;48.784;9.192;2022-11-03T11:52:00;98168.34;;;12.41;78.88
41140;BME280;26881;48.784;9.192;2022-11-03T11:57:23;98161.19;;;12.43;78.63
41140;BME280;26881;48.784;9.192;2022-11-03T12:02:45;98153.72;;;12.50;78.49
41140;BME280;26881;48.784;9.192;2022-11-03T12:08:18;98142.16;;;12.52;78.99
41140;BME280;26881;48.784;9.192;2022-11-03T12:13:49;98131.53;;;12.54;79.41
41140;BME280;26881;48.784;9.192;2022-11-03T12:24:58;98098.31;;;12.65;79.55
41140;BME280;26881;48.784;9.192;2022-11-03T12:30:20;98107.75;;;12.68;80.09
41140;BME280;26881;48.784;9.192;2022-11-03T12:35:42;98093.56;;;12.71;80.15
41140;BME280;26881;48.784;9.192;2022-11-03T12:41:03;98074.00;;;12.75;78.83
41140;BME280;26881;48.784;9.192;2022-11-03T12:46:45;98060.63;;;12.67;79.33
41140;BME280;26881;48.784;9.192;2022-11-03T12:52:06;98050.88;;;12.69;78.95
41140;BME280;26881;48.784;9.192;2022-11-03T12:57:29;98037.63;;;12.70;79.45
41140;BME280;26881;48.784;9.192;2022-11-03T13:02:51;98034.41;;;12.67;79.81
41140;BME280;26881;48.784;9.192;2022-11-03T13:08:13;98015.44;;;12.74;79.85
41140;BME280;26881;48.784;9.192;2022-11-03T13:13:35;98000.41;;;12.76;79.34
41140;BME280;26881;48.784;9.192;2022-11-03T13:18:56;97990.38;;;12.70;78.95
41140;BME280;26881;48.784;9.192;2022-11-03T13:24:18;97970.84;;;12.74;79.49
41140;BME280;26881;48.784;9.192;2022-11-03T13:29:40;97950.81;;;12.73;79.74
41140;BME280;26881;48.784;9.192;2022-11-03T13:35:03;97945.19;;;12.67;80.44
41140;BME280;26881;48.784;9.192;2022-11-03T13:40:27;97938.41;;;12.64;80.89
41140;BME280;26881;48.784;9.192;2022-11-03T13:46:09;97921.94;;;12.62;81.11
41140;BME280;26881;48.784;9.192;2022-11-03T13:51:33;97912.91;;;12.66;80.50
41140;BME280;26881;48.784;9.192;2022-11-03T13:56:55;97911.56;;;12.72;81.59
41140;BME280;26881;48.784;9.192;2022-11-03T14:02:36;97889.63;;;12.61;83.22
41140;BME280;26881;48.784;9.192;2022-11-03T14:08:18;97873.28;;;12.58;83.46
41140;BME280;26881;48.784;9.192;2022-11-03T14:13:40;97850.41;;;12.60;82.97
41140;BME280;26881;48.784;9.192;2022-11-03T14:19:02;97842.88;;;12.67;83.40
41140;BME280;26881;48.784;9.192;2022-11-03T14:24:23;97842.41;;;12.73;82.52
41140;BME280;26881;48.784;9.192;2022-11-03T14:29:45;97833.00;;;12.59;84.87
41140;BME280;26881;48.784;9.192;2022-11-03T14:35:10;97835.13;;;12.54;84.81
41140;BME280;26881;48.784;9.192;2022-11-03T14:40:32;97832.66;;;12.52;83.62
41140;BME280;26881;48.784;9.192;2022-11-03T14:46:12;97832.66;;;12.41;84.50
41140;BME280;26881;48.784;9.192;2022-11-03T14:51:34;97821.09;;;12.43;84.67
41140;BME280;26881;48.784;9.192;2022-11-03T14:56:56;97786.53;;;12.50;84.00
41140;BME280;26881;48.784;9.192;2022-11-03T15:02:18;97772.16;;;12.65;82.83
41140;BME280;26881;48.784;9.192;2022-11-03T15:07:40;97770.50;;;12.64;81.92
41140;BME280;26881;48.784;9.192;2022-11-03T15:13:01;97769.53;;;12.65;82.33
41140;BME280;26881;48.784;9.192;2022-11-03T15:18:23;97751.63;;;12.70;81.19
41140;BME280;26881;48.784;9.192;2022-11-03T15:23:45;97727.66;;;12.75;79.65
41140;BME280;26881;48.784;9.192;2022-11-03T15:29:27;97727.19;;;12.70;80.05
41140;BME280;26881;48.784;9.192;2022-11-03T15:34:49;97721.50;;;12.64;80.59
41140;BME280;26881;48.784;9.192;2022-11-03T15:40:13;97721.84;;;12.71;79.53
41140;BME280;26881;48.784;9.192;2022-11-03T15:45:35;97712.09;;;12.62;80.07
41140;BME280;26881;48.784;9.192;2022-11-03T15:50:56;97701.59;;;12.62;79.71
41140;BME280;26881;48.784;9.192;2022-11-03T15:56:18;97681.31;;;12.64;79.84
41140;BME280;26881;48.784;9.192;2022-11-03T16:01:40;97670.38;;;12.59;80.18
41140;BME280;26881;48.784;9.192;2022-11-03T16:07:02;97650.34;;;12.58;80.32
41140;BME280;26881;48.784;9.192;2022-11-03T16:12:29;97643.03;;;12.40;81.11
41140;BME280;26881;48.784;9.192;2022-11-03T16:17:51;97624.16;;;12.47;80.90
41140;BME280;26881;48.784;9.192;2022-11-03T16:23:12;97622.50;;;12.46;80.96
41140;BME280;26881;48.784;9.192;2022-11-03T16:28:34;97607.22;;;12.51;80.18
41140;BME280;26881;48.784;9.192;2022-11-03T16:33:56;97608.09;;;12.61;78.61
41140;BME280;26881;48.784;9.192;2022-11-03T16:39:19;97593.41;;;12.70;76.94
41140;BME280;26881;48.784;9.192;2022-11-03T16:44:41;97587.72;;;12.64;77.31
41140;BME280;26881;48.784;9.192;2022-11-03T16:50:03;97590.72;;;12.60;77.32
41140;BME280;26881;48.784;9.192;2022-11-03T16:55:25;97583.44;;;12.63;77.29
41140;BME280;26881;48.784;9.192;2022-11-03T17:00:46;97574.84;;;12.61;77.53
41140;BME280;26881;48.784;9.192;2022-11-03T17:06:08;97575.69;;;12.62;77.58
41140;BME280;26881;48.784;9.192;2022-11-03T17:11:30;97577.47;;;12.61;77.52
41140;BME280;26881;48.784;9.192;2022-11-03T17:16:57;97584.25;;;12.64;77.62
41140;BME280;26881;48.784;9.192;2022-11-03T17:22:19;97602.47;;;12.65;77.26
41140;BME280;26881;48.784;9.192;2022-11-03T17:27:45;97612.91;;;12.56;78.60
41140;BME280;26881;48.784;9.192;2022-11-03T17:33:13;97604.44;;;12.63;77.62
41140;BME280;26881;48.784;9.192;2022-11-03T17:38:36;97591.22;;;12.75;75.52
41140;BME280;26881;48.784;9.192;2022-11-03T17:43:58;97581.59;;;12.75;76.36
41140;BME280;26881;48.784;9.192;2022-11-03T17:49:20;97594.38;;;12.69;76.33
41140;BME280;26881;48.784;9.192;2022-11-03T17:54:42;97584.44;;;12.72;75.56
41140;BME280;26881;48.784;9.192;2022-11-03T18:00:04;97570.38;;;12.73;76.11
41140;BME280;26881;48.784;9.192;2022-11-03T18:05:30;97562.81;;;12.80;75.52
41140;BME280;26881;48.784;9.192;2022-11-03T18:10:52;97539.84;;;12.72;75.79
41140;BME280;26881;48.784;9.192;2022-11-03T18:16:14;97537.03;;;12.64;76.71
41140;BME280;26881;48.784;9.192;2022-11-03T18:21:36;97543.63;;;12.58;77.08
41140;BME280;26881;48.784;9.192;2022-11-03T18:26:58;97537.53;;;12.58;76.38
41140;BME280;26881;48.784;9.192;2022-11-03T18:32:20;97537.53;;;12.58;76.54
41140;BME280;26881;48.784;9.192;2022-11-03T18:37:42;97566.97;;;12.40;76.70
41140;BME280;26881;48.784;9.192;2022-11-03T18:43:20;97548.16;;;12.35;78.02
41140;BME280;26881;48.784;9.192;2022-11-03T18:48:42;97526.19;;;12.48;77.36
41140;BME280;26881;48.784;9.192;2022-11-03T18:54:03;97507.16;;;12.55;77.50
41140;BME280;26881;48.784;9.192;2022-11-03T18:59:28;97502.19;;;12.52;76.95
41140;BME280;26881;48.784;9.192;2022-11-03T19:04:52;97480.56;;;12.60;76.28
41140;BME280;26881;48.784;9.192;2022-11-03T19:10:19;97512.91;;;12.49;77.80
41140;BME280;26881;48.784;9.192;2022-11-03T19:15:42;97487.16;;;12.54;77.30
41140;BME280;26881;48.784;9.192;2022-11-03T19:21:10;97463.84;;;12.61;76.35
41140;BME280;26881;48.784;9.192;2022-11-03T19:26:41;97478.25;;;12.46;77.30
41140;BME280;26881;48.784;9.192;2022-11-03T19:32:06;97465.03;;;12.47;77.93
41140;BME280;26881;48.784;9.192;2022-11-03T19:37:33;97453.97;;;12.43;78.60
41140;BME280;26881;48.784;9.192;2022-11-03T19:42:57;97457.69;;;12.41;79.43
41140;BME280;26881;48.784;9.192;2022-11-03T19:48:19;97456.16;;;12.38;81.45
41140;BME280;26881;48.784;9.192;2022-11-03T19:53:46;97451.03;;;12.37;83.74
41140;BME280;26881;48.784;9.192;2022-11-03T19:59:10;97435.28;;;12.37;84.74
41140;BME280;26881;48.784;9.192;2022-11-03T20:04:32;97417.75;;;12.37;84.56
41140;BME280;26881;48.784;9.192;2022-11-03T20:09:54;97439.91;;;12.23;86.04
41140;BME280;26881;48.784;9.192;2022-11-03T20:15:19;97448.72;;;12.01;89.39
41140;BME280;26881;48.784;9.192;2022-11-03T20:20:42;97439.91;;;12.02;90.71
41140;BME280;26881;48.784;9.192;2022-11-03T20:26:11;97423.50;;;12.00;92.03
41140;BME280;26881;48.784;9.192;2022-11-03T20:31:33;97426.69;;;12.04;92.13
41140;BME280;26881;48.784;9.192;2022-11-03T20:36:55;97423.34;;;12.02;93.14
41140;BME280;26881;48.784;9.192;2022-11-03T20:42:22;97406.09;;;11.99;93.42
41140;BME280;26881;48.784;9.192;2022-11-03T20:47:45;97393.00;;;11.99;94.39
41140;BME280;26881;48.784;9.192;2022-11-03T20:53:17;97408.53;;;12.12;92.71
41140;BME280;26881;48.784;9.192;2022-11-03T20:58:39;97410.84;;;12.06;92.79
41140;BME280;26881;48.784;9.192;2022-11-03T21:04:01;97430.28;;;12.03;93.40
41140;BME280;26881;48.784;9.192;2022-11-03T21:09:23;97448.47;;;12.05;93.27
41140;BME280;26881;48.784;9.192;2022-11-03T21:14:45;97447.19;;;11.99;95.16
41140;BME280;26881;48.784;9.192;2022-11-03T21:20:25;97452.31;;;12.00;96.63
41140;BME280;26881;48.784;9.192;2022-11-03T21:25:47;97454.56;;;12.05;95.44
41140;BME280;26881;48.784;9.192;2022-11-03T21:31:11;97452.88;;;12.04;95.91
41140;BME280;26881;48.784;9.192;2022-11-03T21:36:34;97443.88;;;11.97;95.44
41140;BME280;26881;48.784;9.192;2022-11-03T21:41:57;97433.72;;;12.04;95.17
41140;BME280;26881;48.784;9.192;2022-11-03T21:47:37;97435.31;;;11.95;96.31
41140;BME280;26881;48.784;9.192;2022-11-03T21:52:59;97444.25;;;11.92;97.35
41140;BME280;26881;48.784;9.192;2022-11-03T21:58:21;97455.84;;;11.78;99.40
41140;BME280;26881;48.784;9.192;2022-11-03T22:03:43;97475.03;;;11.68;100.00
41140;BME280;26881;48.784;9.192;2022-11-03T22:09:04;97498.03;;;11.64;100.00
41140;BME280;26881;48.784;9.192;2022-11-03T22:14:26;97545.59;;;11.80;100.00
41140;BME280;26881;48.784;9.192;2022-11-03T22:20:08;97533.34;;;11.92;100.00
41140;BME280;26881;48.784;9.192;2022-11-03T22:25:48;97536.66;;;11.94;100.00
41140;BME280;26881;48.784;9.192;2022-11-03T22:31:30;97540.97;;;11.84;100.00
41140;BME280;26881;48.784;9.192;2022-11-03T22:37:03;97557.16;;;11.78;100.00
41140;BME280;26881;48.784;9.192;2022-11-03T22:42:25;97564.78;;;11.92;100.00
41140;BME280;26881;48.784;9.192;2022-11-03T22:48:05;97586.19;;;11.97;100.00
41140;BME280;26881;48.784;9.192;2022-11-03T22:53:29;97600.91;;;12.10;98.01
41140;BME280;26881;48.784;9.192;2022-11-03T22:59:09;97587.88;;;11.98;98.02
41140;BME280;26881;48.784;9.192;2022-11-03T23:04:31;97584.66;;;11.84;99.36
41140;BME280;26881;48.784;9.192;2022-11-03T23:09:53;97615.28;;;11.72;100.00
41140;BME280;26881;48.784;9.192;2022-11-03T23:15:14;97617.31;;;11.79;100.00
41140;BME280;26881;48.784;9.192;2022-11-03T23:20:55;97611.00;;;11.71;100.00
41140;BME280;26881;48.784;9.192;2022-11-03T23:26:28;97615.53;;;11.57;100.00
41140;BME280;26881;48.784;9.192;2022-11-03T23:31:50;97629.91;;;11.63;99.96
41140;BME280;26881;48.784;9.192;2022-11-03T23:37:12;97634.34;;;11.63;100.00
41140;BME280;26881;48.784;9.192;2022-11-03T23:42:34;97629.09;;;11.63;99.21
41140;BME280;26881;48.784;9.192;2022-11-03T23:47:56;97621.72;;;11.45;98.49
41140;BME280;26881;48.784;9.192;2022-11-03T23:53:36;97608.75;;;11.55;97.98
41140;BME280;26881;48.784;9.192;2022-11-03T23:58:58;97618.88;;;11.37;100.00
